sensor_id;sensor_type;location;lat;lon;timestamp;P1;durP1;ratioP1;P2;durP2;ratioP2
73512;SDS011;61754;55.008;73.348;2022-07-06T00:00:28;43.17;;;10.55;;
73512;SDS011;61754;55.008;73.348;2022-07-06T00:02:58;23.60;;;10.07;;
73512;SDS011;61754;55.008;73.348;2022-07-06T00:05:24;29.13;;;10.57;;
73512;SDS011;61754;55.008;73.348;2022-07-06T00:07:50;33.88;;;12.38;;
73512;SDS011;61754;55.008;73.348;2022-07-06T00:10:16;24.58;;;10.65;;
73512;SDS011;61754;55.008;73.348;2022-07-06T00:12:43;25.77;;;11.20;;
73512;SDS011;61754;55.008;73.348;2022-07-06T00:15:09;39.15;;;12.88;;
73512;SDS011;61754;55.008;73.348;2022-07-06T00:17:36;36.33;;;12.55;;
73512;SDS011;61754;55.008;73.348;2022-07-06T00:20:13;31.73;;;13.00;;
73512;SDS011;61754;55.008;73.348;2022-07-06T00:22:39;37.42;;;13.55;;
73512;SDS011;61754;55.008;73.348;2022-07-06T00:25:05;35.83;;;14.38;;
73512;SDS011;61754;55.008;73.348;2022-07-06T00:27:31;26.55;;;12.50;;
73512;SDS011;61754;55.008;73.348;2022-07-06T00:29:57;34.80;;;13.52;;
73512;SDS011;61754;55.008;73.348;2022-07-06T00:32:23;34.60;;;14.10;;
73512;SDS011;61754;55.008;73.348;2022-07-06T00:34:49;31.80;;;15.02;;
73512;SDS011;61754;55.008;73.348;2022-07-06T00:37:15;63.95;;;26.23;;
73512;SDS011;61754;55.008;73.348;2022-07-06T00:39:41;59.90;;;26.13;;
73512;SDS011;61754;55.008;73.348;2022-07-06T00:42:17;59.85;;;25.98;;
73512;SDS011;61754;55.008;73.348;2022-07-06T00:44:43;58.58;;;26.58;;
73512;SDS011;61754;55.008;73.348;2022-07-06T00:47:15;56.72;;;26.95;;
73512;SDS011;61754;55.008;73.348;2022-07-06T00:49:41;56.05;;;27.25;;
73512;SDS011;61754;55.008;73.348;2022-07-06T00:52:26;42.08;;;20.67;;
73512;SDS011;61754;55.008;73.348;2022-07-06T00:54:52;38.40;;;20.90;;
73512;SDS011;61754;55.008;73.348;2022-07-06T00:57:18;30.27;;;18.15;;
73512;SDS011;61754;55.008;73.348;2022-07-06T00:59:54;35.75;;;20.42;;
73512;SDS011;61754;55.008;73.348;2022-07-06T01:02:20;32.92;;;18.73;;
73512;SDS011;61754;55.008;73.348;2022-07-06T01:04:48;39.53;;;20.63;;
73512;SDS011;61754;55.008;73.348;2022-07-06T01:07:14;40.50;;;21.80;;
73512;SDS011;61754;55.008;73.348;2022-07-06T01:09:40;39.90;;;22.35;;
73512;SDS011;61754;55.008;73.348;2022-07-06T01:12:06;42.15;;;23.45;;
73512;SDS011;61754;55.008;73.348;2022-07-06T01:14:32;49.30;;;24.70;;
73512;SDS011;61754;55.008;73.348;2022-07-06T01:17:11;55.95;;;30.35;;
73512;SDS011;61754;55.008;73.348;2022-07-06T01:19:43;57.88;;;32.55;;
73512;SDS011;61754;55.008;73.348;2022-07-06T01:22:09;55.35;;;31.92;;
73512;SDS011;61754;55.008;73.348;2022-07-06T01:24:36;50.55;;;29.55;;
73512;SDS011;61754;55.008;73.348;2022-07-06T01:27:06;53.63;;;29.55;;
73512;SDS011;61754;55.008;73.348;2022-07-06T01:29:33;56.50;;;30.77;;
73512;SDS011;61754;55.008;73.348;2022-07-06T01:32:00;51.92;;;28.50;;
73512;SDS011;61754;55.008;73.348;2022-07-06T01:34:26;46.83;;;26.70;;
73512;SDS011;61754;55.008;73.348;2022-07-06T01:36:53;47.42;;;26.85;;
73512;SDS011;61754;55.008;73.348;2022-07-06T01:39:20;46.25;;;26.98;;
73512;SDS011;61754;55.008;73.348;2022-07-06T01:41:46;54.80;;;29.98;;
73512;SDS011;61754;55.008;73.348;2022-07-06T01:44:14;48.70;;;29.10;;
73512;SDS011;61754;55.008;73.348;2022-07-06T01:46:40;60.40;;;30.23;;
73512;SDS011;61754;55.008;73.348;2022-07-06T01:49:18;57.60;;;30.35;;
73512;SDS011;61754;55.008;73.348;2022-07-06T01:51:44;58.65;;;32.58;;
73512;SDS011;61754;55.008;73.348;2022-07-06T01:54:10;63.47;;;32.63;;
73512;SDS011;61754;55.008;73.348;2022-07-06T01:56:39;80.88;;;36.22;;
73512;SDS011;61754;55.008;73.348;2022-07-06T01:59:06;63.85;;;33.45;;
73512;SDS011;61754;55.008;73.348;2022-07-06T02:01:32;70.97;;;33.92;;
73512;SDS011;61754;55.008;73.348;2022-07-06T02:04:07;66.40;;;34.75;;
73512;SDS011;61754;55.008;73.348;2022-07-06T02:06:34;68.60;;;35.83;;
73512;SDS011;61754;55.008;73.348;2022-07-06T02:09:00;71.07;;;36.40;;
73512;SDS011;61754;55.008;73.348;2022-07-06T02:11:26;75.15;;;36.47;;
73512;SDS011;61754;55.008;73.348;2022-07-06T02:14:03;75.68;;;36.33;;
73512;SDS011;61754;55.008;73.348;2022-07-06T02:16:29;69.75;;;36.25;;
73512;SDS011;61754;55.008;73.348;2022-07-06T02:18:57;68.63;;;33.38;;
73512;SDS011;61754;55.008;73.348;2022-07-06T02:21:32;79.28;;;35.45;;
73512;SDS011;61754;55.008;73.348;2022-07-06T02:23:58;74.57;;;37.75;;
73512;SDS011;61754;55.008;73.348;2022-07-06T02:26:25;65.53;;;33.50;;
73512;SDS011;61754;55.008;73.348;2022-07-06T02:28:52;73.68;;;35.13;;
73512;SDS011;61754;55.008;73.348;2022-07-06T02:31:20;61.60;;;33.58;;
73512;SDS011;61754;55.008;73.348;2022-07-06T02:33:47;76.00;;;35.13;;
73512;SDS011;61754;55.008;73.348;2022-07-06T02:36:14;55.90;;;29.55;;
73512;SDS011;61754;55.008;73.348;2022-07-06T02:38:43;43.70;;;24.75;;
73512;SDS011;61754;55.008;73.348;2022-07-06T02:41:09;42.47;;;24.08;;
73512;SDS011;61754;55.008;73.348;2022-07-06T02:43:44;45.22;;;25.55;;
73512;SDS011;61754;55.008;73.348;2022-07-06T02:46:10;50.58;;;27.05;;
73512;SDS011;61754;55.008;73.348;2022-07-06T02:48:36;40.85;;;25.73;;
73512;SDS011;61754;55.008;73.348;2022-07-06T02:51:04;42.65;;;26.60;;
73512;SDS011;61754;55.008;73.348;2022-07-06T02:53:31;40.28;;;25.58;;
73512;SDS011;61754;55.008;73.348;2022-07-06T02:56:07;45.80;;;26.58;;
73512;SDS011;61754;55.008;73.348;2022-07-06T02:58:35;42.85;;;26.13;;
73512;SDS011;61754;55.008;73.348;2022-07-06T03:01:02;36.28;;;23.50;;
73512;SDS011;61754;55.008;73.348;2022-07-06T03:03:28;41.00;;;24.63;;
73512;SDS011;61754;55.008;73.348;2022-07-06T03:05:56;32.78;;;21.92;;
73512;SDS011;61754;55.008;73.348;2022-07-06T03:08:22;34.70;;;23.85;;
73512;SDS011;61754;55.008;73.348;2022-07-06T03:10:49;39.38;;;24.65;;
73512;SDS011;61754;55.008;73.348;2022-07-06T03:13:17;57.72;;;30.60;;
73512;SDS011;61754;55.008;73.348;2022-07-06T03:15:45;66.63;;;30.55;;
73512;SDS011;61754;55.008;73.348;2022-07-06T03:18:12;59.05;;;30.13;;
73512;SDS011;61754;55.008;73.348;2022-07-06T03:20:46;65.18;;;31.00;;
73512;SDS011;61754;55.008;73.348;2022-07-06T03:23:14;51.60;;;28.98;;
73512;SDS011;61754;55.008;73.348;2022-07-06T03:25:40;59.80;;;30.35;;
73512;SDS011;61754;55.008;73.348;2022-07-06T03:28:07;56.47;;;30.58;;
73512;SDS011;61754;55.008;73.348;2022-07-06T03:30:33;59.08;;;32.00;;
73512;SDS011;61754;55.008;73.348;2022-07-06T03:33:00;56.70;;;30.38;;
73512;SDS011;61754;55.008;73.348;2022-07-06T03:35:28;66.38;;;32.38;;
73512;SDS011;61754;55.008;73.348;2022-07-06T03:37:56;57.67;;;31.52;;
73512;SDS011;61754;55.008;73.348;2022-07-06T03:40:25;63.78;;;31.02;;
73512;SDS011;61754;55.008;73.348;2022-07-06T03:42:52;58.47;;;29.02;;
73512;SDS011;61754;55.008;73.348;2022-07-06T03:45:28;45.50;;;28.13;;
73512;SDS011;61754;55.008;73.348;2022-07-06T03:47:56;42.97;;;26.17;;
73512;SDS011;61754;55.008;73.348;2022-07-06T03:50:23;43.80;;;26.02;;
73512;SDS011;61754;55.008;73.348;2022-07-06T03:52:54;42.15;;;24.77;;
73512;SDS011;61754;55.008;73.348;2022-07-06T03:55:22;43.63;;;24.23;;
73512;SDS011;61754;55.008;73.348;2022-07-06T03:57:55;43.70;;;24.30;;
73512;SDS011;61754;55.008;73.348;2022-07-06T04:00:22;36.58;;;23.13;;
73512;SDS011;61754;55.008;73.348;2022-07-06T04:02:56;41.08;;;24.20;;
73512;SDS011;61754;55.008;73.348;2022-07-06T04:05:27;30.42;;;21.45;;
73512;SDS011;61754;55.008;73.348;2022-07-06T04:07:54;36.42;;;23.60;;
73512;SDS011;61754;55.008;73.348;2022-07-06T04:10:26;41.55;;;23.63;;
73512;SDS011;61754;55.008;73.348;2022-07-06T04:12:54;31.33;;;21.75;;
73512;SDS011;61754;55.008;73.348;2022-07-06T04:15:21;44.22;;;23.85;;
73512;SDS011;61754;55.008;73.348;2022-07-06T04:17:47;36.88;;;23.95;;
73512;SDS011;61754;55.008;73.348;2022-07-06T04:20:27;49.03;;;22.38;;
73512;SDS011;61754;55.008;73.348;2022-07-06T04:22:55;43.88;;;21.58;;
73512;SDS011;61754;55.008;73.348;2022-07-06T04:25:24;40.17;;;21.23;;
73512;SDS011;61754;55.008;73.348;2022-07-06T04:27:51;39.13;;;23.83;;
73512;SDS011;61754;55.008;73.348;2022-07-06T04:30:18;36.72;;;19.63;;
73512;SDS011;61754;55.008;73.348;2022-07-06T04:32:44;46.20;;;22.63;;
73512;SDS011;61754;55.008;73.348;2022-07-06T04:35:10;37.92;;;21.63;;
73512;SDS011;61754;55.008;73.348;2022-07-06T04:37:38;41.85;;;21.75;;
73512;SDS011;61754;55.008;73.348;2022-07-06T04:40:04;41.17;;;21.15;;
73512;SDS011;61754;55.008;73.348;2022-07-06T04:42:31;38.70;;;19.50;;
73512;SDS011;61754;55.008;73.348;2022-07-06T04:44:57;40.67;;;21.73;;
73512;SDS011;61754;55.008;73.348;2022-07-06T04:47:24;45.58;;;20.38;;
73512;SDS011;61754;55.008;73.348;2022-07-06T04:49:59;40.40;;;19.13;;
73512;SDS011;61754;55.008;73.348;2022-07-06T04:52:25;57.15;;;23.00;;
73512;SDS011;61754;55.008;73.348;2022-07-06T04:54:51;41.13;;;21.65;;
73512;SDS011;61754;55.008;73.348;2022-07-06T04:57:17;47.30;;;22.48;;
73512;SDS011;61754;55.008;73.348;2022-07-06T04:59:43;48.92;;;20.45;;
73512;SDS011;61754;55.008;73.348;2022-07-06T05:02:10;39.00;;;18.85;;
73512;SDS011;61754;55.008;73.348;2022-07-06T05:04:38;33.58;;;18.08;;
73512;SDS011;61754;55.008;73.348;2022-07-06T05:07:06;68.97;;;22.25;;
73512;SDS011;61754;55.008;73.348;2022-07-06T05:09:32;31.73;;;18.30;;
73512;SDS011;61754;55.008;73.348;2022-07-06T05:12:00;66.63;;;20.02;;
73512;SDS011;61754;55.008;73.348;2022-07-06T05:14:36;35.47;;;16.20;;
73512;SDS011;61754;55.008;73.348;2022-07-06T05:17:04;35.17;;;15.90;;
73512;SDS011;61754;55.008;73.348;2022-07-06T05:19:31;25.27;;;14.70;;
73512;SDS011;61754;55.008;73.348;2022-07-06T05:21:58;27.98;;;14.45;;
73512;SDS011;61754;55.008;73.348;2022-07-06T05:24:24;38.47;;;17.52;;
73512;SDS011;61754;55.008;73.348;2022-07-06T05:26:50;35.47;;;18.52;;
73512;SDS011;61754;55.008;73.348;2022-07-06T05:29:17;30.52;;;16.42;;
73512;SDS011;61754;55.008;73.348;2022-07-06T05:31:45;30.95;;;16.25;;
73512;SDS011;61754;55.008;73.348;2022-07-06T05:34:11;31.02;;;17.35;;
73512;SDS011;61754;55.008;73.348;2022-07-06T05:36:38;45.88;;;18.70;;
73512;SDS011;61754;55.008;73.348;2022-07-06T05:39:04;47.40;;;18.02;;
73512;SDS011;61754;55.008;73.348;2022-07-06T05:41:30;29.25;;;18.20;;
73512;SDS011;61754;55.008;73.348;2022-07-06T05:43:58;31.98;;;16.58;;
73512;SDS011;61754;55.008;73.348;2022-07-06T05:46:24;32.42;;;17.85;;
73512;SDS011;61754;55.008;73.348;2022-07-06T05:48:50;28.48;;;16.88;;
73512;SDS011;61754;55.008;73.348;2022-07-06T05:51:35;26.13;;;16.38;;
73512;SDS011;61754;55.008;73.348;2022-07-06T05:54:01;23.73;;;16.13;;
73512;SDS011;61754;55.008;73.348;2022-07-06T05:56:33;30.50;;;17.20;;
73512;SDS011;61754;55.008;73.348;2022-07-06T05:59:00;32.15;;;18.20;;
73512;SDS011;61754;55.008;73.348;2022-07-06T06:01:30;46.92;;;19.67;;
73512;SDS011;61754;55.008;73.348;2022-07-06T06:04:07;35.78;;;18.73;;
73512;SDS011;61754;55.008;73.348;2022-07-06T06:06:33;38.28;;;18.33;;
73512;SDS011;61754;55.008;73.348;2022-07-06T06:08:59;37.72;;;16.75;;
73512;SDS011;61754;55.008;73.348;2022-07-06T06:11:27;28.30;;;17.02;;
73512;SDS011;61754;55.008;73.348;2022-07-06T06:13:54;37.20;;;16.60;;
73512;SDS011;61754;55.008;73.348;2022-07-06T06:16:20;24.33;;;13.82;;
73512;SDS011;61754;55.008;73.348;2022-07-06T06:18:46;28.73;;;13.75;;
73512;SDS011;61754;55.008;73.348;2022-07-06T06:21:12;25.08;;;12.82;;
73512;SDS011;61754;55.008;73.348;2022-07-06T06:23:38;26.52;;;12.63;;
73512;SDS011;61754;55.008;73.348;2022-07-06T06:26:04;25.40;;;14.07;;
73512;SDS011;61754;55.008;73.348;2022-07-06T06:28:30;29.75;;;13.90;;
73512;SDS011;61754;55.008;73.348;2022-07-06T06:30:58;24.98;;;12.98;;
73512;SDS011;61754;55.008;73.348;2022-07-06T06:33:24;28.70;;;13.00;;
73512;SDS011;61754;55.008;73.348;2022-07-06T06:36:00;24.13;;;13.13;;
73512;SDS011;61754;55.008;73.348;2022-07-06T06:38:27;29.15;;;13.80;;
73512;SDS011;61754;55.008;73.348;2022-07-06T06:40:55;28.65;;;12.65;;
73512;SDS011;61754;55.008;73.348;2022-07-06T06:43:25;15.00;;;11.63;;
73512;SDS011;61754;55.008;73.348;2022-07-06T06:46:13;17.73;;;10.80;;
73512;SDS011;61754;55.008;73.348;2022-07-06T06:48:40;13.73;;;9.93;;
73512;SDS011;61754;55.008;73.348;2022-07-06T06:51:07;15.70;;;10.48;;
73512;SDS011;61754;55.008;73.348;2022-07-06T06:53:33;22.70;;;11.27;;
73512;SDS011;61754;55.008;73.348;2022-07-06T06:55:59;32.65;;;11.93;;
73512;SDS011;61754;55.008;73.348;2022-07-06T06:58:25;23.30;;;10.48;;
73512;SDS011;61754;55.008;73.348;2022-07-06T07:00:51;20.63;;;9.57;;
73512;SDS011;61754;55.008;73.348;2022-07-06T07:03:17;14.82;;;8.25;;
73512;SDS011;61754;55.008;73.348;2022-07-06T07:05:43;25.00;;;9.38;;
73512;SDS011;61754;55.008;73.348;2022-07-06T07:08:10;16.83;;;8.50;;
73512;SDS011;61754;55.008;73.348;2022-07-06T07:10:36;12.80;;;8.23;;
73512;SDS011;61754;55.008;73.348;2022-07-06T07:13:02;10.35;;;7.13;;
73512;SDS011;61754;55.008;73.348;2022-07-06T07:15:29;8.32;;;6.78;;
73512;SDS011;61754;55.008;73.348;2022-07-06T07:17:57;15.32;;;7.57;;
73512;SDS011;61754;55.008;73.348;2022-07-06T07:20:24;15.80;;;7.40;;
73512;SDS011;61754;55.008;73.348;2022-07-06T07:22:51;9.82;;;7.07;;
73512;SDS011;61754;55.008;73.348;2022-07-06T07:25:19;11.38;;;6.78;;
73512;SDS011;61754;55.008;73.348;2022-07-06T07:27:45;8.43;;;6.25;;
73512;SDS011;61754;55.008;73.348;2022-07-06T07:30:22;13.68;;;7.82;;
73512;SDS011;61754;55.008;73.348;2022-07-06T07:32:49;14.57;;;7.25;;
73512;SDS011;61754;55.008;73.348;2022-07-06T07:35:17;13.25;;;7.45;;
73512;SDS011;61754;55.008;73.348;2022-07-06T07:37:43;11.23;;;7.55;;
73512;SDS011;61754;55.008;73.348;2022-07-06T07:40:09;9.43;;;7.35;;
73512;SDS011;61754;55.008;73.348;2022-07-06T07:42:35;10.20;;;6.90;;
73512;SDS011;61754;55.008;73.348;2022-07-06T07:45:01;10.10;;;7.03;;
73512;SDS011;61754;55.008;73.348;2022-07-06T07:47:27;13.07;;;7.05;;
73512;SDS011;61754;55.008;73.348;2022-07-06T07:49:53;8.48;;;7.22;;
73512;SDS011;61754;55.008;73.348;2022-07-06T07:52:23;9.60;;;6.90;;
73512;SDS011;61754;55.008;73.348;2022-07-06T07:54:49;11.18;;;7.45;;
73512;SDS011;61754;55.008;73.348;2022-07-06T07:57:20;9.57;;;7.63;;
73512;SDS011;61754;55.008;73.348;2022-07-06T07:59:46;11.52;;;7.25;;
73512;SDS011;61754;55.008;73.348;2022-07-06T08:02:13;14.70;;;7.93;;
73512;SDS011;61754;55.008;73.348;2022-07-06T08:04:40;17.70;;;7.85;;
73512;SDS011;61754;55.008;73.348;2022-07-06T08:07:06;24.95;;;9.02;;
73512;SDS011;61754;55.008;73.348;2022-07-06T08:09:33;24.17;;;9.40;;
73512;SDS011;61754;55.008;73.348;2022-07-06T08:12:01;16.63;;;8.82;;
73512;SDS011;61754;55.008;73.348;2022-07-06T08:14:27;22.27;;;9.45;;
73512;SDS011;61754;55.008;73.348;2022-07-06T08:16:53;19.58;;;9.18;;
73512;SDS011;61754;55.008;73.348;2022-07-06T08:19:19;17.33;;;9.77;;
73512;SDS011;61754;55.008;73.348;2022-07-06T08:21:50;30.17;;;11.02;;
73512;SDS011;61754;55.008;73.348;2022-07-06T08:24:16;20.42;;;9.13;;
73512;SDS011;61754;55.008;73.348;2022-07-06T08:26:52;23.05;;;10.10;;
73512;SDS011;61754;55.008;73.348;2022-07-06T08:29:18;18.95;;;9.90;;
73512;SDS011;61754;55.008;73.348;2022-07-06T08:31:44;23.65;;;9.43;;
73512;SDS011;61754;55.008;73.348;2022-07-06T08:34:10;25.85;;;10.23;;
73512;SDS011;61754;55.008;73.348;2022-07-06T08:36:36;50.85;;;13.68;;
73512;SDS011;61754;55.008;73.348;2022-07-06T08:39:03;50.78;;;19.75;;
73512;SDS011;61754;55.008;73.348;2022-07-06T08:41:30;36.78;;;15.85;;
73512;SDS011;61754;55.008;73.348;2022-07-06T08:43:56;44.67;;;18.05;;
73512;SDS011;61754;55.008;73.348;2022-07-06T08:46:22;42.33;;;16.92;;
73512;SDS011;61754;55.008;73.348;2022-07-06T08:48:48;28.35;;;11.88;;
73512;SDS011;61754;55.008;73.348;2022-07-06T08:51:21;23.95;;;12.30;;
73512;SDS011;61754;55.008;73.348;2022-07-06T08:53:48;24.80;;;13.27;;
73512;SDS011;61754;55.008;73.348;2022-07-06T08:56:15;34.45;;;13.85;;
73512;SDS011;61754;55.008;73.348;2022-07-06T08:58:41;30.58;;;14.10;;
73512;SDS011;61754;55.008;73.348;2022-07-06T09:01:11;31.10;;;13.55;;
73512;SDS011;61754;55.008;73.348;2022-07-06T09:03:40;45.05;;;15.57;;
73512;SDS011;61754;55.008;73.348;2022-07-06T09:06:07;31.40;;;14.68;;
73512;SDS011;61754;55.008;73.348;2022-07-06T09:08:33;38.58;;;16.52;;
73512;SDS011;61754;55.008;73.348;2022-07-06T09:11:02;49.20;;;16.00;;
73512;SDS011;61754;55.008;73.348;2022-07-06T09:13:29;37.10;;;15.60;;
73512;SDS011;61754;55.008;73.348;2022-07-06T09:15:55;36.55;;;17.10;;
73512;SDS011;61754;55.008;73.348;2022-07-06T09:18:21;37.90;;;16.85;;
73512;SDS011;61754;55.008;73.348;2022-07-06T09:20:47;29.60;;;14.57;;
73512;SDS011;61754;55.008;73.348;2022-07-06T09:23:18;24.85;;;15.77;;
73512;SDS011;61754;55.008;73.348;2022-07-06T09:25:47;28.92;;;15.63;;
73512;SDS011;61754;55.008;73.348;2022-07-06T09:28:13;35.03;;;15.77;;
73512;SDS011;61754;55.008;73.348;2022-07-06T09:30:49;33.17;;;17.67;;
73512;SDS011;61754;55.008;73.348;2022-07-06T09:33:19;38.83;;;19.65;;
73512;SDS011;61754;55.008;73.348;2022-07-06T09:35:45;41.83;;;21.23;;
73512;SDS011;61754;55.008;73.348;2022-07-06T09:38:14;34.45;;;20.80;;
73512;SDS011;61754;55.008;73.348;2022-07-06T09:40:42;38.85;;;21.73;;
73512;SDS011;61754;55.008;73.348;2022-07-06T09:43:09;37.92;;;22.95;;
73512;SDS011;61754;55.008;73.348;2022-07-06T09:45:40;36.20;;;22.58;;
73512;SDS011;61754;55.008;73.348;2022-07-06T09:48:11;41.63;;;23.58;;
73512;SDS011;61754;55.008;73.348;2022-07-06T09:50:44;33.22;;;23.55;;
73512;SDS011;61754;55.008;73.348;2022-07-06T09:53:16;29.98;;;21.33;;
73512;SDS011;61754;55.008;73.348;2022-07-06T09:55:43;34.38;;;22.70;;
73512;SDS011;61754;55.008;73.348;2022-07-06T09:58:10;49.25;;;23.27;;
73512;SDS011;61754;55.008;73.348;2022-07-06T10:00:36;40.67;;;22.92;;
73512;SDS011;61754;55.008;73.348;2022-07-06T10:03:13;41.15;;;21.80;;
73512;SDS011;61754;55.008;73.348;2022-07-06T10:05:50;35.05;;;21.83;;
73512;SDS011;61754;55.008;73.348;2022-07-06T10:08:33;34.78;;;22.02;;
73512;SDS011;61754;55.008;73.348;2022-07-06T10:11:04;39.90;;;19.95;;
73512;SDS011;61754;55.008;73.348;2022-07-06T10:13:32;29.55;;;20.00;;
73512;SDS011;61754;55.008;73.348;2022-07-06T10:16:00;26.52;;;19.08;;
73512;SDS011;61754;55.008;73.348;2022-07-06T10:18:26;36.15;;;19.13;;
73512;SDS011;61754;55.008;73.348;2022-07-06T10:20:53;28.85;;;18.67;;
73512;SDS011;61754;55.008;73.348;2022-07-06T10:23:21;28.02;;;19.42;;
73512;SDS011;61754;55.008;73.348;2022-07-06T10:25:54;37.65;;;19.38;;
73512;SDS011;61754;55.008;73.348;2022-07-06T10:28:22;26.83;;;16.92;;
73512;SDS011;61754;55.008;73.348;2022-07-06T10:30:48;25.70;;;17.30;;
73512;SDS011;61754;55.008;73.348;2022-07-06T10:33:15;31.98;;;17.95;;
73512;SDS011;61754;55.008;73.348;2022-07-06T10:35:52;23.42;;;16.65;;
73512;SDS011;61754;55.008;73.348;2022-07-06T10:38:30;25.67;;;15.75;;
73512;SDS011;61754;55.008;73.348;2022-07-06T10:41:03;21.40;;;14.45;;
73512;SDS011;61754;55.008;73.348;2022-07-06T10:43:33;19.13;;;14.02;;
73512;SDS011;61754;55.008;73.348;2022-07-06T10:46:05;30.40;;;14.85;;
73512;SDS011;61754;55.008;73.348;2022-07-06T10:48:35;18.55;;;14.52;;
73512;SDS011;61754;55.008;73.348;2022-07-06T10:51:01;21.02;;;15.50;;
73512;SDS011;61754;55.008;73.348;2022-07-06T10:53:30;28.58;;;15.93;;
73512;SDS011;61754;55.008;73.348;2022-07-06T10:56:04;20.00;;;13.15;;
73512;SDS011;61754;55.008;73.348;2022-07-06T11:01:01;27.00;;;13.45;;
73512;SDS011;61754;55.008;73.348;2022-07-06T11:08:45;22.95;;;12.50;;
73512;SDS011;61754;55.008;73.348;2022-07-06T11:11:11;16.40;;;12.07;;
73512;SDS011;61754;55.008;73.348;2022-07-06T11:13:48;20.65;;;12.55;;
73512;SDS011;61754;55.008;73.348;2022-07-06T11:16:19;15.43;;;12.38;;
73512;SDS011;61754;55.008;73.348;2022-07-06T11:18:47;18.98;;;12.18;;
73512;SDS011;61754;55.008;73.348;2022-07-06T11:21:23;13.05;;;11.60;;
73512;SDS011;61754;55.008;73.348;2022-07-06T11:23:56;16.27;;;11.48;;
73512;SDS011;61754;55.008;73.348;2022-07-06T11:26:22;15.57;;;11.45;;
73512;SDS011;61754;55.008;73.348;2022-07-06T11:28:58;22.13;;;12.82;;
73512;SDS011;61754;55.008;73.348;2022-07-06T11:31:24;18.13;;;13.07;;
73512;SDS011;61754;55.008;73.348;2022-07-06T11:36:32;16.83;;;12.55;;
73512;SDS011;61754;55.008;73.348;2022-07-06T11:38:58;18.08;;;12.95;;
73512;SDS011;61754;55.008;73.348;2022-07-06T11:41:26;15.73;;;12.25;;
73512;SDS011;61754;55.008;73.348;2022-07-06T11:43:52;13.40;;;11.80;;
73512;SDS011;61754;55.008;73.348;2022-07-06T11:48:48;15.27;;;11.63;;
73512;SDS011;61754;55.008;73.348;2022-07-06T11:57:20;22.92;;;11.38;;
73512;SDS011;61754;55.008;73.348;2022-07-06T12:14:18;23.15;;;11.25;;
73512;SDS011;61754;55.008;73.348;2022-07-06T12:16:45;22.23;;;11.27;;
73512;SDS011;61754;55.008;73.348;2022-07-06T12:19:12;20.67;;;12.07;;
73512;SDS011;61754;55.008;73.348;2022-07-06T12:26:39;14.30;;;10.38;;
73512;SDS011;61754;55.008;73.348;2022-07-06T12:29:07;18.52;;;12.30;;
73512;SDS011;61754;55.008;73.348;2022-07-06T12:34:05;14.88;;;9.98;;
73512;SDS011;61754;55.008;73.348;2022-07-06T12:36:31;16.27;;;9.90;;
73512;SDS011;61754;55.008;73.348;2022-07-06T12:38:57;16.60;;;8.60;;
73512;SDS011;61754;55.008;73.348;2022-07-06T12:41:30;10.43;;;8.57;;
73512;SDS011;61754;55.008;73.348;2022-07-06T12:44:06;9.27;;;8.38;;
73512;SDS011;61754;55.008;73.348;2022-07-06T12:46:36;15.32;;;8.57;;
73512;SDS011;61754;55.008;73.348;2022-07-06T12:51:53;11.80;;;8.80;;
73512;SDS011;61754;55.008;73.348;2022-07-06T12:59:23;16.60;;;9.35;;
73512;SDS011;61754;55.008;73.348;2022-07-06T13:01:59;16.38;;;9.98;;
73512;SDS011;61754;55.008;73.348;2022-07-06T13:04:26;12.07;;;9.15;;
73512;SDS011;61754;55.008;73.348;2022-07-06T13:06:52;12.50;;;8.40;;
73512;SDS011;61754;55.008;73.348;2022-07-06T13:09:29;14.43;;;8.40;;
73512;SDS011;61754;55.008;73.348;2022-07-06T13:11:56;14.38;;;8.75;;
73512;SDS011;61754;55.008;73.348;2022-07-06T13:14:22;12.68;;;7.80;;
73512;SDS011;61754;55.008;73.348;2022-07-06T13:16:48;10.23;;;7.82;;
73512;SDS011;61754;55.008;73.348;2022-07-06T13:19:24;10.10;;;7.90;;
73512;SDS011;61754;55.008;73.348;2022-07-06T13:21:50;12.77;;;7.82;;
73512;SDS011;61754;55.008;73.348;2022-07-06T13:24:23;18.48;;;7.88;;
73512;SDS011;61754;55.008;73.348;2022-07-06T13:26:49;9.50;;;7.82;;
73512;SDS011;61754;55.008;73.348;2022-07-06T13:29:15;14.13;;;7.95;;
73512;SDS011;61754;55.008;73.348;2022-07-06T13:31:42;8.23;;;7.43;;
73512;SDS011;61754;55.008;73.348;2022-07-06T13:34:08;12.75;;;7.50;;
73512;SDS011;61754;55.008;73.348;2022-07-06T13:36:36;14.90;;;7.68;;
73512;SDS011;61754;55.008;73.348;2022-07-06T13:39:03;11.20;;;7.80;;
73512;SDS011;61754;55.008;73.348;2022-07-06T13:41:30;14.80;;;7.50;;
73512;SDS011;61754;55.008;73.348;2022-07-06T13:43:56;9.88;;;6.90;;
73512;SDS011;61754;55.008;73.348;2022-07-06T13:46:27;9.88;;;7.32;;
73512;SDS011;61754;55.008;73.348;2022-07-06T13:48:54;11.30;;;7.32;;
73512;SDS011;61754;55.008;73.348;2022-07-06T13:51:20;8.32;;;6.80;;
73512;SDS011;61754;55.008;73.348;2022-07-06T13:53:46;14.75;;;7.38;;
73512;SDS011;61754;55.008;73.348;2022-07-06T13:56:12;8.43;;;6.40;;
73512;SDS011;61754;55.008;73.348;2022-07-06T13:58:38;9.32;;;6.47;;
73512;SDS011;61754;55.008;73.348;2022-07-06T14:01:07;9.20;;;6.13;;
73512;SDS011;61754;55.008;73.348;2022-07-06T14:03:33;10.13;;;6.70;;
73512;SDS011;61754;55.008;73.348;2022-07-06T14:06:01;13.82;;;6.47;;
73512;SDS011;61754;55.008;73.348;2022-07-06T14:08:30;9.30;;;6.68;;
73512;SDS011;61754;55.008;73.348;2022-07-06T14:10:56;9.52;;;7.03;;
73512;SDS011;61754;55.008;73.348;2022-07-06T14:13:34;9.38;;;6.20;;
73512;SDS011;61754;55.008;73.348;2022-07-06T14:16:10;9.27;;;5.78;;
73512;SDS011;61754;55.008;73.348;2022-07-06T14:18:37;12.32;;;6.40;;
73512;SDS011;61754;55.008;73.348;2022-07-06T14:21:04;11.13;;;6.45;;
73512;SDS011;61754;55.008;73.348;2022-07-06T14:23:30;6.90;;;5.95;;
73512;SDS011;61754;55.008;73.348;2022-07-06T14:25:56;8.95;;;6.78;;
73512;SDS011;61754;55.008;73.348;2022-07-06T14:28:28;10.95;;;6.25;;
73512;SDS011;61754;55.008;73.348;2022-07-06T14:30:54;7.03;;;5.63;;
73512;SDS011;61754;55.008;73.348;2022-07-06T14:36:17;13.40;;;5.78;;
73512;SDS011;61754;55.008;73.348;2022-07-06T14:38:43;13.60;;;6.40;;
73512;SDS011;61754;55.008;73.348;2022-07-06T14:41:09;13.20;;;5.97;;
73512;SDS011;61754;55.008;73.348;2022-07-06T14:43:35;7.32;;;5.95;;
73512;SDS011;61754;55.008;73.348;2022-07-06T14:46:02;9.95;;;5.75;;
73512;SDS011;61754;55.008;73.348;2022-07-06T14:48:39;11.93;;;5.55;;
73512;SDS011;61754;55.008;73.348;2022-07-06T14:51:08;13.38;;;5.15;;
73512;SDS011;61754;55.008;73.348;2022-07-06T14:53:34;8.43;;;6.13;;
73512;SDS011;61754;55.008;73.348;2022-07-06T14:56:01;7.80;;;5.68;;
73512;SDS011;61754;55.008;73.348;2022-07-06T14:58:27;11.18;;;5.55;;
73512;SDS011;61754;55.008;73.348;2022-07-06T15:00:53;7.32;;;5.28;;
73512;SDS011;61754;55.008;73.348;2022-07-06T15:03:20;10.15;;;5.40;;
73512;SDS011;61754;55.008;73.348;2022-07-06T15:05:46;11.55;;;5.68;;
73512;SDS011;61754;55.008;73.348;2022-07-06T15:08:13;8.13;;;5.05;;
73512;SDS011;61754;55.008;73.348;2022-07-06T15:10:43;6.63;;;5.70;;